createdAt,value
2022-08-03T00:01:35.849Z,101380.75
2022-08-03T00:04:03.907Z,101384.81
2022-08-03T00:06:36.823Z,101379.13
2022-08-03T00:09:06.587Z,101382.19
2022-08-03T00:11:36.667Z,101381.31
2022-08-03T00:14:04.721Z,101383.81
2022-08-03T00:16:33.073Z,101390.28
2022-08-03T00:19:01.120Z,101380.38
2022-08-03T00:21:29.459Z,101377.84
2022-08-03T00:23:57.463Z,101382.75
2022-08-03T00:26:25.409Z,101381.03
2022-08-03T00:28:54.607Z,101384.41
2022-08-03T00:31:51.567Z,101372.50
2022-08-03T00:34:10.457Z,101372.31
2022-08-03T00:36:40.851Z,101371.78
2022-08-03T00:39:09.008Z,101376.81
2022-08-03T00:41:36.915Z,101369.84
2022-08-03T00:44:06.439Z,101377.47
2022-08-03T00:46:34.303Z,101369.44
2022-08-03T00:49:02.326Z,101371.66
2022-08-03T00:51:30.359Z,101376.78
2022-08-03T00:53:58.380Z,101364.16
2022-08-03T00:56:27.039Z,101368.03
2022-08-03T00:58:58.079Z,101372.59
2022-08-03T01:01:30.623Z,101370.19
2022-08-03T01:04:01.134Z,101368.44
2022-08-03T01:06:37.122Z,101380.69
2022-08-03T01:09:10.816Z,101371.84
2022-08-03T01:11:59.809Z,101371.75
2022-08-03T01:14:35.450Z,101382.56
2022-08-03T01:17:13.520Z,101378.06
2022-08-03T01:19:50.727Z,101373.41
2022-08-03T01:22:46.265Z,101376.13
2022-08-03T01:25:26.025Z,101368.13
2022-08-03T01:28:03.832Z,101370.69
2022-08-03T01:30:36.495Z,101364.00
2022-08-03T01:33:07.274Z,101359.75
2022-08-03T01:35:42.991Z,101360.75
2022-08-03T01:38:14.858Z,101358.50
2022-08-03T01:40:48.163Z,101362.38
2022-08-03T01:44:27.043Z,101360.53
2022-08-03T01:46:11.637Z,101354.84
2022-08-03T01:48:43.364Z,101362.63
2022-08-03T01:51:13.237Z,101353.75
2022-08-03T01:53:43.434Z,101359.19
2022-08-03T01:56:12.399Z,101357.22
2022-08-03T01:58:42.635Z,101358.41
2022-08-03T02:01:14.721Z,101355.97
2022-08-03T02:03:59.608Z,101355.13
2022-08-03T02:07:00.730Z,101351.03
2022-08-03T02:09:22.149Z,101351.06
2022-08-03T02:11:51.157Z,101346.50
2022-08-03T02:14:21.458Z,101345.81
2022-08-03T02:16:51.784Z,101352.94
2022-08-03T02:19:20.757Z,101347.81
2022-08-03T02:21:56.964Z,101342.38
2022-08-03T02:24:29.884Z,101352.22
2022-08-03T02:26:59.439Z,101339.66
2022-08-03T02:29:39.733Z,101346.25
2022-08-03T02:32:13.692Z,101343.47
2022-08-03T02:34:46.936Z,101345.69
2022-08-03T02:37:16.172Z,101346.84
2022-08-03T02:39:45.612Z,101341.91
2022-08-03T02:42:15.810Z,101341.19
2022-08-03T02:44:48.551Z,101332.81
2022-08-03T02:47:22.062Z,101331.94
2022-08-03T02:49:52.677Z,101334.66
2022-08-03T02:52:24.460Z,101337.09
2022-08-03T02:54:56.246Z,101338.13
2022-08-03T02:57:26.064Z,101337.25
2022-08-03T02:59:55.367Z,101333.84
2022-08-03T03:02:26.168Z,101333.13
2022-08-03T03:05:53.625Z,101339.44
2022-08-03T03:07:51.319Z,101333.84
2022-08-03T03:10:20.918Z,101336.41
2022-08-03T03:12:51.542Z,101339.28
2022-08-03T03:15:20.046Z,101333.69
2022-08-03T03:17:50.857Z,101332.69
2022-08-03T03:20:29.155Z,101336.72
2022-08-03T03:22:59.875Z,101330.59
2022-08-03T03:25:29.104Z,101334.06
2022-08-03T03:27:57.734Z,101333.31
2022-08-03T03:30:26.808Z,101329.44
2022-08-03T03:32:56.515Z,101338.72
2022-08-03T03:35:24.724Z,101336.16
2022-08-03T03:37:53.723Z,101331.13
2022-08-03T03:40:22.182Z,101339.44
2022-08-03T03:42:51.154Z,101344.16
2022-08-03T03:45:20.051Z,101342.63
2022-08-03T03:47:48.655Z,101325.75
2022-08-03T03:50:19.672Z,101335.94
2022-08-03T03:52:47.633Z,101330.63
2022-08-03T03:55:18.038Z,101336.31
2022-08-03T03:57:46.906Z,101332.91
2022-08-03T04:00:16.872Z,101331.75
2022-08-03T04:02:45.205Z,101339.47
2022-08-03T04:05:31.003Z,101339.63
2022-08-03T04:08:20.385Z,101335.06
2022-08-03T04:11:05.201Z,101337.31
2022-08-03T04:13:36.572Z,101334.59
2022-08-03T04:16:06.843Z,101337.47
2022-08-03T04:18:39.478Z,101339.91
2022-08-03T04:21:11.257Z,101339.31
2022-08-03T04:23:46.023Z,101341.75
2022-08-03T04:26:16.597Z,101338.88
2022-08-03T04:28:47.781Z,101333.13
2022-08-03T04:31:17.182Z,101340.44
2022-08-03T04:33:46.280Z,101341.16
2022-08-03T04:36:18.728Z,101340.13
2022-08-03T04:38:56.869Z,101340.13
2022-08-03T04:41:27.203Z,101338.44
2022-08-03T04:43:57.218Z,101341.00
2022-08-03T04:46:28.395Z,101339.06
2022-08-03T04:48:57.578Z,101348.78
2022-08-03T04:51:26.961Z,101342.66
2022-08-03T04:53:56.287Z,101344.91
2022-08-03T04:56:24.217Z,101351.72
2022-08-03T04:58:52.153Z,101349.56
2022-08-03T05:01:20.770Z,101356.25
2022-08-03T05:03:48.896Z,101354.81
2022-08-03T05:06:18.120Z,101358.06
2022-08-03T05:08:47.074Z,101359.06
2022-08-03T05:11:18.478Z,101353.72
2022-08-03T05:13:47.067Z,101354.13
2022-08-03T05:16:15.529Z,101349.78
2022-08-03T05:18:45.061Z,101353.06
2022-08-03T05:21:14.252Z,101353.59
2022-08-03T05:23:42.227Z,101352.13
2022-08-03T05:26:11.808Z,101359.50
2022-08-03T05:28:50.670Z,101354.06
2022-08-03T05:31:19.813Z,101351.06
2022-08-03T05:33:49.148Z,101353.84
2022-08-03T05:36:17.325Z,101357.97
2022-08-03T05:38:48.317Z,101360.50
2022-08-03T05:41:23.228Z,101358.03
2022-08-03T05:43:54.788Z,101359.56
2022-08-03T05:46:23.945Z,101354.53
2022-08-03T05:48:52.392Z,101352.03
2022-08-03T05:51:20.429Z,101355.50
2022-08-03T05:53:48.548Z,101355.19
2022-08-03T05:56:17.039Z,101352.72
2022-08-03T05:58:46.882Z,101350.56
2022-08-03T06:01:17.551Z,101361.16
2022-08-03T06:03:45.966Z,101353.19
2022-08-03T06:06:13.998Z,101350.00
2022-08-03T06:08:44.635Z,101357.50
2022-08-03T06:11:12.906Z,101354.66
2022-08-03T06:13:40.874Z,101365.25
2022-08-03T06:16:09.109Z,101353.69
2022-08-03T06:18:39.232Z,101360.75
2022-08-03T06:21:14.978Z,101356.34
2022-08-03T06:23:54.850Z,101355.38
2022-08-03T06:26:24.837Z,101349.59
2022-08-03T06:28:54.450Z,101353.53
2022-08-03T06:31:32.256Z,101351.34
2022-08-03T06:34:33.596Z,101362.25
2022-08-03T06:36:52.439Z,101352.56
2022-08-03T06:39:21.116Z,101363.34
2022-08-03T06:41:52.367Z,101360.28
2022-08-03T06:44:20.352Z,101364.91
2022-08-03T06:46:48.472Z,101361.91
2022-08-03T06:49:18.099Z,101365.16
2022-08-03T06:52:04.539Z,101353.44
2022-08-03T06:54:35.674Z,101351.22
2022-08-03T06:57:04.016Z,101351.53
2022-08-03T07:00:08.021Z,101352.38
2022-08-03T07:02:20.618Z,101346.88
2022-08-03T07:04:50.704Z,101351.03
2022-08-03T07:07:19.481Z,101351.31
2022-08-03T07:09:56.705Z,101350.66
2022-08-03T07:12:29.104Z,101355.03
2022-08-03T07:15:01.267Z,101362.38
2022-08-03T07:17:31.645Z,101356.72
2022-08-03T07:20:01.948Z,101365.00
2022-08-03T07:22:30.093Z,101369.53
2022-08-03T07:24:58.289Z,101370.88
2022-08-03T07:27:28.703Z,101371.69
2022-08-03T07:29:56.825Z,101371.16
2022-08-03T07:32:25.238Z,101373.94
2022-08-03T07:34:58.312Z,101372.00
2022-08-03T07:37:30.846Z,101370.44
2022-08-03T07:39:59.255Z,101372.09
2022-08-03T07:42:27.458Z,101366.91
2022-08-03T07:44:55.356Z,101369.50
2022-08-03T07:47:25.757Z,101366.03
2022-08-03T07:50:04.086Z,101371.25
2022-08-03T07:52:53.181Z,101369.84
2022-08-03T07:55:23.192Z,101366.09
2022-08-03T07:58:01.626Z,101362.53
2022-08-03T08:00:29.712Z,101359.81
2022-08-03T08:02:57.619Z,101362.31
2022-08-03T08:05:25.576Z,101352.31
2022-08-03T08:07:54.921Z,101357.16
2022-08-03T08:10:22.986Z,101364.19
2022-08-03T08:12:51.152Z,101363.94
2022-08-03T08:15:19.137Z,101351.56
2022-08-03T08:17:49.650Z,101354.38
2022-08-03T08:20:25.217Z,101362.19
2022-08-03T08:23:01.116Z,101351.84
2022-08-03T08:25:30.374Z,101358.53
2022-08-03T08:28:31.806Z,101360.22
2022-08-03T08:30:47.070Z,101348.56
2022-08-03T08:33:22.660Z,101345.06
2022-08-03T08:35:52.023Z,101353.50
2022-08-03T08:38:21.447Z,101348.28
2022-08-03T08:40:50.397Z,101361.38
2022-08-03T08:43:18.373Z,101351.03
2022-08-03T08:45:48.479Z,101359.72
2022-08-03T08:48:19.445Z,101355.44
2022-08-03T08:50:47.686Z,101360.09
2022-08-03T08:53:18.277Z,101357.84
2022-08-03T08:55:59.614Z,101359.22
2022-08-03T08:58:30.838Z,101359.44
2022-08-03T09:00:59.062Z,101363.19
2022-08-03T09:03:30.168Z,101360.28
2022-08-03T09:06:01.334Z,101363.31
2022-08-03T09:08:30.350Z,101361.22
2022-08-03T09:10:59.808Z,101365.81
2022-08-03T09:13:29.347Z,101362.13
2022-08-03T09:16:18.913Z,101352.88
2022-08-03T09:18:48.411Z,101356.03
2022-08-03T09:21:34.897Z,101347.31
2022-08-03T09:24:06.104Z,101360.50
2022-08-03T09:26:37.475Z,101348.97
2022-08-03T09:29:13.467Z,101360.16
2022-08-03T09:31:44.646Z,101354.16
2022-08-03T09:34:14.730Z,101361.94
2022-08-03T09:36:44.648Z,101359.25
2022-08-03T09:39:14.601Z,101359.81
2022-08-03T09:41:45.397Z,101349.16
2022-08-03T09:44:24.158Z,101351.50
2022-08-03T09:46:57.298Z,101346.75
2022-08-03T09:49:26.030Z,101356.91
2022-08-03T09:52:32.566Z,101357.59
2022-08-03T09:54:43.309Z,101354.81
2022-08-03T09:57:21.830Z,101354.38
2022-08-03T09:59:50.163Z,101348.28
2022-08-03T10:02:26.129Z,101346.81
2022-08-03T10:04:55.492Z,101343.19
2022-08-03T10:07:24.664Z,101342.31
2022-08-03T10:09:58.309Z,101340.75
2022-08-03T10:12:49.234Z,101338.44
2022-08-03T10:16:21.866Z,101336.53
2022-08-03T10:18:05.791Z,101332.34
2022-08-03T10:20:37.888Z,101333.41
2022-08-03T10:23:07.082Z,101328.16
2022-08-03T10:25:39.028Z,101329.22
2022-08-03T10:28:12.063Z,101326.44
2022-08-03T10:30:42.458Z,101330.81
2022-08-03T10:33:51.197Z,101332.22
2022-08-03T10:36:07.755Z,101329.72
2022-08-03T10:38:41.619Z,101316.63
2022-08-03T10:41:10.068Z,101317.38
2022-08-03T10:43:48.959Z,101319.31
2022-08-03T10:46:18.882Z,101314.63
2022-08-03T10:48:47.569Z,101313.50
2022-08-03T10:51:16.052Z,101319.50
2022-08-03T10:53:52.847Z,101315.19
2022-08-03T10:56:57.854Z,101311.25
2022-08-03T11:00:06.944Z,101313.94
2022-08-03T11:03:08.815Z,101312.28
2022-08-03T11:05:41.933Z,101314.78
2022-08-03T11:08:30.231Z,101312.28
2022-08-03T11:11:01.076Z,101318.47
2022-08-03T11:13:33.500Z,101322.31
2022-08-03T11:16:07.778Z,101309.31
2022-08-03T11:18:57.253Z,101309.94
2022-08-03T11:21:54.421Z,101314.56
2022-08-03T11:24:59.976Z,101310.44
2022-08-03T11:27:34.972Z,101318.91
2022-08-03T11:30:07.643Z,101314.03
2022-08-03T11:32:59.986Z,101318.63
2022-08-03T11:35:30.960Z,101314.78
2022-08-03T11:38:19.339Z,101309.00
2022-08-03T11:40:48.959Z,101302.97
2022-08-03T11:43:47.445Z,101303.34
2022-08-03T11:46:29.552Z,101309.53
2022-08-03T11:49:09.931Z,101304.47
2022-08-03T11:51:40.970Z,101303.00
2022-08-03T11:54:09.627Z,101299.06
2022-08-03T11:56:47.611Z,101302.13
2022-08-03T11:59:20.650Z,101295.03
2022-08-03T12:01:49.973Z,101299.16
2022-08-03T12:04:18.099Z,101303.88
2022-08-03T12:07:00.870Z,101299.44
2022-08-03T12:09:29.057Z,101307.56
2022-08-03T12:12:00.157Z,101296.66
2022-08-03T12:14:48.539Z,101291.50
2022-08-03T12:17:18.010Z,101293.09
2022-08-03T12:19:46.644Z,101292.25
2022-08-03T12:22:16.834Z,101293.50
2022-08-03T12:24:47.598Z,101287.69
2022-08-03T12:27:24.858Z,101287.06
2022-08-03T12:29:58.165Z,101295.06
2022-08-03T12:32:27.071Z,101290.94
2022-08-03T12:34:55.597Z,101286.91
2022-08-03T12:37:25.930Z,101288.81
2022-08-03T12:40:02.835Z,101287.06
2022-08-03T12:42:34.964Z,101280.38
2022-08-03T12:45:21.702Z,101279.69
2022-08-03T12:47:54.586Z,101287.88
2022-08-03T12:50:27.313Z,101285.50
2022-08-03T12:52:56.989Z,101280.22
2022-08-03T12:56:02.347Z,101280.63
2022-08-03T12:58:33.794Z,101275.09
2022-08-03T13:01:05.002Z,101285.31
2022-08-03T13:03:43.236Z,101279.13
2022-08-03T13:06:15.440Z,101283.13
2022-08-03T13:08:46.101Z,101274.84
2022-08-03T13:11:52.567Z,101277.88
2022-08-03T13:14:16.885Z,101280.69
2022-08-03T13:16:48.663Z,101281.25
2022-08-03T13:19:16.648Z,101283.13
2022-08-03T13:22:03.430Z,101288.19
2022-08-03T13:24:34.757Z,101279.72
2022-08-03T13:28:02.198Z,101267.13
2022-08-03T13:29:54.105Z,101279.09
2022-08-03T13:32:22.509Z,101271.53
2022-08-03T13:34:50.822Z,101278.16
2022-08-03T13:37:18.920Z,101277.13
2022-08-03T13:39:58.932Z,101274.06
2022-08-03T13:42:28.563Z,101269.56
2022-08-03T13:44:56.566Z,101269.13
2022-08-03T13:47:24.539Z,101263.28
2022-08-03T13:49:54.327Z,101259.75
2022-08-03T13:52:30.363Z,101271.53
2022-08-03T13:55:00.229Z,101267.97
2022-08-03T13:58:05.986Z,101266.88
2022-08-03T14:00:27.920Z,101254.16
2022-08-03T14:03:14.891Z,101263.22
2022-08-03T14:05:44.130Z,101255.97
2022-08-03T14:08:12.698Z,101251.47
2022-08-03T14:10:44.328Z,101249.19
2022-08-03T14:13:17.762Z,101248.94
2022-08-03T14:15:49.824Z,101243.69
2022-08-03T14:18:27.890Z,101249.66
2022-08-03T14:21:05.890Z,101250.22
2022-08-03T14:23:36.186Z,101253.19
2022-08-03T14:26:06.047Z,101249.22
2022-08-03T14:28:34.363Z,101244.13
2022-08-03T14:31:02.651Z,101252.31
2022-08-03T14:33:30.642Z,101242.13
2022-08-03T14:35:58.544Z,101241.28
2022-08-03T14:38:26.549Z,101251.19
2022-08-03T14:40:54.885Z,101237.75
2022-08-03T14:43:24.575Z,101233.47
2022-08-03T14:45:53.717Z,101243.88
2022-08-03T14:50:10.340Z,101239.19
2022-08-03T14:51:10.341Z,101235.22
2022-08-03T14:53:38.452Z,101238.13
2022-08-03T14:56:10.505Z,101223.47
2022-08-03T14:58:40.406Z,101235.22
2022-08-03T15:02:04.540Z,101222.59
2022-08-03T15:03:56.983Z,101228.38
2022-08-03T15:06:25.133Z,101238.50
2022-08-03T15:09:13.727Z,101228.34
2022-08-03T15:11:41.326Z,101233.25
2022-08-03T15:14:10.793Z,101226.66
2022-08-03T15:16:41.948Z,101223.06
2022-08-03T15:20:01.596Z,101224.34
2022-08-03T15:21:57.931Z,101226.81
2022-08-03T15:24:29.017Z,101226.03
2022-08-03T15:26:56.828Z,101220.84
2022-08-03T15:30:05.527Z,101213.38
2022-08-03T15:32:14.765Z,101217.53
2022-08-03T15:34:50.659Z,101214.56
2022-08-03T15:37:19.744Z,101203.63
2022-08-03T15:39:58.131Z,101209.63
2022-08-03T15:42:28.281Z,101215.75
2022-08-03T15:44:57.677Z,101206.53
2022-08-03T15:47:25.826Z,101210.44
2022-08-03T15:49:53.667Z,101220.31
2022-08-03T15:52:21.714Z,101215.50
2022-08-03T15:54:49.725Z,101217.94
2022-08-03T15:57:17.743Z,101214.59
2022-08-03T15:59:45.777Z,101216.69
2022-08-03T16:02:15.267Z,101209.47
2022-08-03T16:04:43.306Z,101212.19
2022-08-03T16:07:12.713Z,101213.63
2022-08-03T16:09:46.001Z,101215.97
2022-08-03T16:12:16.142Z,101211.06
2022-08-03T16:14:52.790Z,101207.84
2022-08-03T16:17:24.443Z,101205.94
2022-08-03T16:19:55.059Z,101210.38
2022-08-03T16:22:23.779Z,101211.22
2022-08-03T16:24:52.279Z,101206.38
2022-08-03T16:27:58.098Z,101215.63
2022-08-03T16:30:10.282Z,101214.31
2022-08-03T16:32:39.947Z,101208.13
2022-08-03T16:35:09.216Z,101207.56
2022-08-03T16:37:51.801Z,101210.09
2022-08-03T16:40:26.079Z,101218.16
2022-08-03T16:42:54.170Z,101214.72
2022-08-03T16:45:22.605Z,101220.63
2022-08-03T16:48:04.842Z,101213.19
2022-08-03T16:50:35.374Z,101217.25
2022-08-03T16:53:09.022Z,101213.25
2022-08-03T16:55:43.480Z,101218.16
2022-08-03T16:58:34.413Z,101214.59
2022-08-03T17:01:21.135Z,101217.19
2022-08-03T17:04:01.952Z,101213.66
2022-08-03T17:06:34.307Z,101221.53
2022-08-03T17:09:08.397Z,101221.53
2022-08-03T17:11:43.055Z,101219.22
2022-08-03T17:14:22.088Z,101218.19
2022-08-03T17:16:53.909Z,101222.66
2022-08-03T17:19:26.377Z,101220.50
2022-08-03T17:22:01.253Z,101215.22
2022-08-03T17:24:34.626Z,101213.56
2022-08-03T17:27:08.860Z,101218.69
2022-08-03T17:29:44.887Z,101215.97
2022-08-03T17:32:18.318Z,101219.19
2022-08-03T17:34:51.081Z,101226.44
2022-08-03T17:37:50.660Z,101217.19
2022-08-03T17:40:12.756Z,101220.63
2022-08-03T17:42:46.379Z,101225.09
2022-08-03T17:45:19.286Z,101227.44
2022-08-03T17:47:57.154Z,101221.97
2022-08-03T17:50:45.475Z,101221.56
2022-08-03T17:53:24.054Z,101221.78
2022-08-03T17:56:40.368Z,101214.38
2022-08-03T17:59:08.536Z,101212.94
2022-08-03T18:02:12.272Z,101208.47
2022-08-03T18:05:00.663Z,101212.53
2022-08-03T18:07:41.200Z,101226.53
2022-08-03T18:10:15.374Z,101222.72
2022-08-03T18:12:52.215Z,101226.09
2022-08-03T18:15:26.410Z,101223.16
2022-08-03T18:18:01.938Z,101227.59
2022-08-03T18:20:40.895Z,101232.06
2022-08-03T18:23:24.584Z,101235.66
2022-08-03T18:26:06.837Z,101228.28
2022-08-03T18:28:38.326Z,101231.44
2022-08-03T18:31:07.576Z,101236.06
2022-08-03T18:36:29.578Z,101231.41
2022-08-03T18:39:06.857Z,101236.69
2022-08-03T18:41:37.201Z,101229.50
2022-08-03T18:44:09.237Z,101231.38
2022-08-03T18:47:16.303Z,101240.88
2022-08-03T18:49:53.913Z,101232.16
2022-08-03T18:52:27.858Z,101232.78
2022-08-03T18:55:20.831Z,101233.38
2022-08-03T18:58:06.867Z,101251.72
2022-08-03T19:00:54.418Z,101243.19
2022-08-03T19:03:43.445Z,101242.59
2022-08-03T19:06:20.283Z,101253.75
2022-08-03T19:08:55.793Z,101246.56
2022-08-03T19:12:14.560Z,101251.44
2022-08-03T19:14:28.810Z,101256.00
2022-08-03T19:17:06.611Z,101258.13
2022-08-03T19:19:44.489Z,101266.94
2022-08-03T19:22:16.345Z,101263.31
2022-08-03T19:24:47.827Z,101266.88
2022-08-03T19:27:17.155Z,101266.63
2022-08-03T19:29:59.830Z,101269.34
2022-08-03T19:32:29.973Z,101261.69
2022-08-03T19:34:59.410Z,101267.09
2022-08-03T19:37:38.713Z,101283.31
2022-08-03T19:40:10.953Z,101272.47
2022-08-03T19:42:45.541Z,101273.91
2022-08-03T19:45:22.498Z,101279.13
2022-08-03T19:48:13.478Z,101277.19
2022-08-03T19:50:44.748Z,101280.75
2022-08-03T19:53:14.207Z,101284.47
2022-08-03T19:55:47.482Z,101280.63
2022-08-03T19:58:24.508Z,101286.41
2022-08-03T20:00:57.109Z,101288.06
2022-08-03T20:03:27.812Z,101291.94
2022-08-03T20:06:16.916Z,101288.75
2022-08-03T20:08:45.903Z,101285.25
2022-08-03T20:11:19.728Z,101288.00
2022-08-03T20:13:53.442Z,101282.06
2022-08-03T20:16:21.956Z,101294.47
2022-08-03T20:18:49.916Z,101291.19
2022-08-03T20:21:18.834Z,101293.00
2022-08-03T20:24:02.753Z,101295.28
2022-08-03T20:26:39.521Z,101301.50
2022-08-03T20:29:14.997Z,101295.94
2022-08-03T20:31:43.079Z,101298.56
2022-08-03T20:34:11.017Z,101306.13
2022-08-03T20:36:39.049Z,101307.72
2022-08-03T20:39:07.770Z,101307.84
2022-08-03T20:41:37.158Z,101308.00
2022-08-03T20:44:05.810Z,101307.75
2022-08-03T20:46:50.255Z,101309.81
2022-08-03T20:49:23.956Z,101309.94
2022-08-03T20:51:53.607Z,101311.13
2022-08-03T20:54:29.733Z,101321.44
2022-08-03T20:56:59.142Z,101321.31
2022-08-03T20:59:36.604Z,101323.75
2022-08-03T21:02:08.524Z,101320.56
2022-08-03T21:04:37.524Z,101319.75
2022-08-03T21:07:17.261Z,101318.72
2022-08-03T21:09:51.899Z,101320.69
2022-08-03T21:12:28.846Z,101328.22
2022-08-03T21:13:04.167Z,101226.53
2022-08-03T21:15:02.765Z,101331.41
2022-08-03T21:17:42.005Z,101333.00
2022-08-03T21:20:12.123Z,101338.53
2022-08-03T21:22:44.288Z,101331.38
2022-08-03T21:25:17.630Z,101334.53
2022-08-03T21:27:46.274Z,101330.94
2022-08-03T21:30:15.380Z,101329.78
2022-08-03T21:32:46.298Z,101326.38
2022-08-03T21:35:15.323Z,101331.53
2022-08-03T21:37:44.747Z,101325.75
2022-08-03T21:40:15.925Z,101325.28
2022-08-03T21:42:48.697Z,101334.38
2022-08-03T21:45:17.885Z,101332.84
2022-08-03T21:47:48.451Z,101330.63
2022-08-03T21:50:18.417Z,101329.13
2022-08-03T21:52:48.899Z,101321.94
2022-08-03T21:55:20.262Z,101334.44
2022-08-03T21:57:53.842Z,101340.09
2022-08-03T22:00:24.126Z,101341.19
2022-08-03T22:02:57.169Z,101333.88
2022-08-03T22:05:42.698Z,101335.81
2022-08-03T22:08:12.472Z,101339.88
2022-08-03T22:10:40.677Z,101337.16
2022-08-03T22:13:09.304Z,101333.56
2022-08-03T22:15:37.253Z,101336.88
2022-08-03T22:18:06.885Z,101339.97
2022-08-03T22:20:34.986Z,101333.63
2022-08-03T22:23:04.714Z,101346.97
2022-08-03T22:25:35.526Z,101330.78
2022-08-03T22:28:07.295Z,101340.03
2022-08-03T22:30:35.719Z,101345.16
2022-08-03T22:33:11.415Z,101350.97
2022-08-03T22:35:47.157Z,101352.34
2022-08-03T22:38:17.292Z,101340.72
2022-08-03T22:40:48.260Z,101346.38
2022-08-03T22:43:16.394Z,101352.19
2022-08-03T22:46:09.319Z,101354.88
2022-08-03T22:48:40.945Z,101352.84
2022-08-03T22:51:09.293Z,101350.28
2022-08-03T22:53:37.353Z,101362.25
2022-08-03T22:56:05.729Z,101355.06
2022-08-03T22:58:33.714Z,101362.75
2022-08-03T23:01:05.569Z,101358.66
2022-08-03T23:03:59.332Z,101357.63
2022-08-03T23:06:28.314Z,101358.34
2022-08-03T23:08:56.991Z,101360.38
2022-08-03T23:11:25.553Z,101359.00
2022-08-03T23:13:55.052Z,101353.38
2022-08-03T23:16:28.500Z,101359.16
2022-08-03T23:19:00.043Z,101364.63
2022-08-03T23:21:53.946Z,101364.28
2022-08-03T23:24:30.769Z,101361.56
2022-08-03T23:26:59.387Z,101356.97
2022-08-03T23:29:30.261Z,101360.19
2022-08-03T23:31:59.467Z,101358.34
2022-08-03T23:34:46.551Z,101365.31
2022-08-03T23:37:15.469Z,101362.06
2022-08-03T23:39:46.823Z,101351.84
2022-08-03T23:42:19.108Z,101354.06
2022-08-03T23:44:47.711Z,101361.38
2022-08-03T23:47:15.834Z,101360.69
2022-08-03T23:49:45.586Z,101356.09
2022-08-03T23:52:20.159Z,101359.69
2022-08-03T23:54:58.377Z,101363.09
2022-08-03T23:57:33.819Z,101359.50
